Pierce, ID

5:10 AM PDT on August 30, 2014 (GMT -0700)
MesoWest HEMLOCK BUTTE ID US SNOTEL | Change Station
CLOSE
Current Station
Personal Weather Station
Location: Pierce, ID
Elevation: 5810 ft
Nearby Weather Stations

Elev 5810 ft 46.48 °N, 115.63 °W | Updated 15 hours ago

Fog
Fog
47 °F
Feels Like 47 °F
N
2
Wind Variable Wind from WNW
Gusts 3 mph

Today
High -- | Low -- °F
--% Chance of Precip.
Yesterday
High -- | Low -- °F
Precip. -- in
6:00 AM 7:25 PM
Waxing Crescent, 21% visible
Pressure 29.96 in
Visibility 10.0 miles
Clouds Scattered Clouds 11000 ft
Dew Point 47 °F
Humidity 97%
Rainfall -9999.00 in
Snow Depth 0 in , 0 in , 0 in
UV 0 out of 12
Pollen 7.40 out of 12
Air Quality Not available.
Flu Activity Not available.
METAR KGIC 301155Z AUTO 12005KT 10SM SCT110 12/06 A2996 RMK AO1 T01170064 10311 20055

More Conditions Fewer Conditions

Pressure 29.96 in
Visibility 10.0 miles
Clouds Scattered Clouds 11000 ft
Dew Point 47 °F
Humidity 97%
Rainfall -9999.00 in
Snow Depth 0 in , 0 in , 0 in
UV 0 out of 12
Pollen 7.40 out of 12
Air Quality Not available.
Flu Activity Not available.
METAR KGIC 301155Z AUTO 12005KT 10SM SCT110 12/06 A2996 RMK AO1 T01170064 10311 20055

More Conditions Fewer Conditions

10-Day Weather Forecast

Almanac

Astronomy

Aug. 30, 2014 Rise Set
Actual Time 6:00 AM PDT 7:25 PM PDT
Civil Twilight 5:28 AM PDT 7:56 PM PDT
Nautical Twilight 4:50 AM PDT 8:34 PM PDT
Astronomical Twilight 4:09 AM PDT 9:14 PM PDT
Moon 11:11 AM PDT 9:41 PM PDT
Length of Visible Light 14h 27m
Length of Day
13h 24m
Tomorrow will be 3m 9s shorter.
Waxing Crescent, 21% of the Moon is Illuminated
Today
Waxing Crescent
Sep 2
First Quarter
Sep 8
Full
Sep 15
Last Quarter
Sep 24
New

Today's Extremes

State Highs State Lows

Community

WunderPhotos

Upload Photos

1,748,500 photos uploaded!

WunderBlogs® & News

By Dr. Jeff Masters
Director of Meteorology, Weather Underground
By Kari Strenfel
Meteorologist, Weather Underground
By Christopher C. Burt
Weather Historian, Weather Underground
August 30, 2014
August 30, 2014
August 30, 2014

Nearby

Snow Depth

Station Depth Elevation
Hemlock Butte 0 in 5810 ft
Shanghi Summit 0 in 4570 ft
Crater Meadows 0 in 5960 ft
Elk Butte 0 in 5690 ft
Lost Lake 0 in 6110 ft

Earthquake Activity

City Distance Mag. Time & Date
No recent earthquake activity has been reported nearby.
Minimum magnitude displayed is 2.5.

Coastal Water Temperatures

Place Temperature
No Stations Reporting

Nearby Weather Stations